sensor_id;sensor_type;location;lat;lon;timestamp;pressure;altitude;pressure_sealevel;temperature;humidity
18813;BME280;9534;51.140;6.296;2023-01-15T00:02:43;99102.00;;;7.12;100.00
18813;BME280;9534;51.140;6.296;2023-01-15T00:06:46;99119.13;;;7.12;100.00
18813;BME280;9534;51.140;6.296;2023-01-15T00:10:50;99103.63;;;6.95;100.00
18813;BME280;9534;51.140;6.296;2023-01-15T00:14:53;99080.97;;;6.83;100.00
18813;BME280;9534;51.140;6.296;2023-01-15T00:18:59;99079.38;;;6.75;100.00
18813;BME280;9534;51.140;6.296;2023-01-15T00:23:05;99037.16;;;6.73;100.00
18813;BME280;9534;51.140;6.296;2023-01-15T00:27:29;99039.22;;;6.77;100.00
18813;BME280;9534;51.140;6.296;2023-01-15T00:31:43;99039.69;;;6.68;100.00
18813;BME280;9534;51.140;6.296;2023-01-15T00:35:52;99061.44;;;6.68;100.00
18813;BME280;9534;51.140;6.296;2023-01-15T00:39:56;99052.03;;;6.70;100.00
18813;BME280;9534;51.140;6.296;2023-01-15T00:44:01;99043.44;;;6.73;100.00
18813;BME280;9534;51.140;6.296;2023-01-15T00:48:05;99022.13;;;6.70;100.00
18813;BME280;9534;51.140;6.296;2023-01-15T00:52:10;99010.66;;;6.68;100.00
18813;BME280;9534;51.140;6.296;2023-01-15T00:56:14;98999.78;;;6.68;100.00
18813;BME280;9534;51.140;6.296;2023-01-15T01:00:19;99019.88;;;6.67;100.00
18813;BME280;9534;51.140;6.296;2023-01-15T01:04:22;99027.16;;;6.67;100.00
18813;BME280;9534;51.140;6.296;2023-01-15T01:08:25;99029.69;;;6.68;100.00
18813;BME280;9534;51.140;6.296;2023-01-15T01:12:28;99012.16;;;6.64;100.00
18813;BME280;9534;51.140;6.296;2023-01-15T01:16:34;99023.34;;;6.74;100.00
18813;BME280;9534;51.140;6.296;2023-01-15T01:20:39;99019.16;;;6.72;100.00
18813;BME280;9534;51.140;6.296;2023-01-15T01:24:42;99014.34;;;6.74;100.00
18813;BME280;9534;51.140;6.296;2023-01-15T01:28:47;99016.25;;;6.73;100.00
18813;BME280;9534;51.140;6.296;2023-01-15T01:32:52;99025.63;;;6.77;100.00
18813;BME280;9534;51.140;6.296;2023-01-15T01:36:57;99004.06;;;6.76;100.00
18813;BME280;9534;51.140;6.296;2023-01-15T01:41:00;99002.06;;;6.71;100.00
18813;BME280;9534;51.140;6.296;2023-01-15T01:45:11;99035.28;;;6.73;100.00
18813;BME280;9534;51.140;6.296;2023-01-15T01:49:21;99027.13;;;6.73;100.00
18813;BME280;9534;51.140;6.296;2023-01-15T01:53:28;99048.41;;;6.76;100.00
18813;BME280;9534;51.140;6.296;2023-01-15T01:57:32;99035.44;;;6.78;100.00
18813;BME280;9534;51.140;6.296;2023-01-15T02:01:35;99035.81;;;6.82;100.00
18813;BME280;9534;51.140;6.296;2023-01-15T02:05:43;99017.78;;;6.87;100.00
18813;BME280;9534;51.140;6.296;2023-01-15T02:09:48;99026.13;;;6.86;100.00
18813;BME280;9534;51.140;6.296;2023-01-15T02:13:54;99014.91;;;6.82;100.00
18813;BME280;9534;51.140;6.296;2023-01-15T02:18:06;99025.31;;;6.85;100.00
18813;BME280;9534;51.140;6.296;2023-01-15T02:22:21;99045.78;;;6.88;100.00
18813;BME280;9534;51.140;6.296;2023-01-15T02:26:53;99024.63;;;6.90;100.00
18813;BME280;9534;51.140;6.296;2023-01-15T02:31:02;98998.13;;;6.85;100.00
18813;BME280;9534;51.140;6.296;2023-01-15T02:35:11;99009.00;;;6.85;100.00
18813;BME280;9534;51.140;6.296;2023-01-15T02:39:18;99000.97;;;6.90;100.00
18813;BME280;9534;51.140;6.296;2023-01-15T02:43:26;98993.44;;;6.92;100.00
18813;BME280;9534;51.140;6.296;2023-01-15T02:47:33;98990.84;;;6.97;100.00
18813;BME280;9534;51.140;6.296;2023-01-15T02:51:43;98995.47;;;6.97;100.00
18813;BME280;9534;51.140;6.296;2023-01-15T02:55:53;98977.41;;;7.02;100.00
18813;BME280;9534;51.140;6.296;2023-01-15T03:00:06;98983.59;;;7.09;100.00
18813;BME280;9534;51.140;6.296;2023-01-15T03:04:16;98985.72;;;7.07;100.00
18813;BME280;9534;51.140;6.296;2023-01-15T03:08:21;98984.81;;;7.13;100.00
18813;BME280;9534;51.140;6.296;2023-01-15T03:12:26;98975.59;;;7.14;100.00
18813;BME280;9534;51.140;6.296;2023-01-15T03:16:34;98978.56;;;7.13;100.00
18813;BME280;9534;51.140;6.296;2023-01-15T03:20:42;98984.81;;;7.13;100.00
18813;BME280;9534;51.140;6.296;2023-01-15T03:24:52;98996.16;;;7.10;100.00
18813;BME280;9534;51.140;6.296;2023-01-15T03:28:56;98962.44;;;7.11;100.00
18813;BME280;9534;51.140;6.296;2023-01-15T03:33:01;98979.16;;;7.15;100.00
18813;BME280;9534;51.140;6.296;2023-01-15T03:37:06;98969.41;;;7.07;100.00
18813;BME280;9534;51.140;6.296;2023-01-15T03:41:14;98974.25;;;7.05;100.00
18813;BME280;9534;51.140;6.296;2023-01-15T03:45:28;98975.28;;;7.04;100.00
18813;BME280;9534;51.140;6.296;2023-01-15T03:49:41;98992.06;;;7.01;100.00
18813;BME280;9534;51.140;6.296;2023-01-15T03:53:57;98982.25;;;7.00;100.00
18813;BME280;9534;51.140;6.296;2023-01-15T03:58:04;98991.63;;;7.04;100.00
18813;BME280;9534;51.140;6.296;2023-01-15T04:02:16;98987.53;;;6.95;100.00
18813;BME280;9534;51.140;6.296;2023-01-15T04:06:24;98989.44;;;6.95;100.00
18813;BME280;9534;51.140;6.296;2023-01-15T04:10:28;98976.44;;;6.97;100.00
18813;BME280;9534;51.140;6.296;2023-01-15T04:14:33;98988.13;;;6.97;100.00
18813;BME280;9534;51.140;6.296;2023-01-15T04:18:41;98990.84;;;6.97;100.00
18813;BME280;9534;51.140;6.296;2023-01-15T04:22:46;98998.66;;;6.94;100.00
18813;BME280;9534;51.140;6.296;2023-01-15T04:26:49;98991.91;;;6.96;100.00
18813;BME280;9534;51.140;6.296;2023-01-15T04:30:55;98989.81;;;6.98;100.00
18813;BME280;9534;51.140;6.296;2023-01-15T04:34:58;98987.53;;;6.95;100.00
18813;BME280;9534;51.140;6.296;2023-01-15T04:39:03;98990.41;;;7.00;100.00
18813;BME280;9534;51.140;6.296;2023-01-15T04:43:07;98990.41;;;7.00;100.00
18813;BME280;9534;51.140;6.296;2023-01-15T04:47:40;98991.00;;;7.02;100.00
18813;BME280;9534;51.140;6.296;2023-01-15T04:51:44;98989.13;;;7.03;100.00
18813;BME280;9534;51.140;6.296;2023-01-15T04:55:48;99009.59;;;7.05;100.00
18813;BME280;9534;51.140;6.296;2023-01-15T04:59:51;98994.94;;;7.06;100.00
18813;BME280;9534;51.140;6.296;2023-01-15T05:03:55;98999.16;;;7.02;100.00
18813;BME280;9534;51.140;6.296;2023-01-15T05:07:59;99001.44;;;7.05;100.00
18813;BME280;9534;51.140;6.296;2023-01-15T05:12:04;98997.28;;;7.03;100.00
18813;BME280;9534;51.140;6.296;2023-01-15T05:16:09;98987.84;;;7.05;100.00
18813;BME280;9534;51.140;6.296;2023-01-15T05:20:12;99001.28;;;7.00;100.00
18813;BME280;9534;51.140;6.296;2023-01-15T05:24:16;99002.59;;;6.98;100.00
18813;BME280;9534;51.140;6.296;2023-01-15T05:28:20;99008.38;;;7.01;100.00
18813;BME280;9534;51.140;6.296;2023-01-15T05:32:23;99007.16;;;6.97;100.00
18813;BME280;9534;51.140;6.296;2023-01-15T05:36:29;98990.84;;;6.97;100.00
18813;BME280;9534;51.140;6.296;2023-01-15T05:40:32;98997.97;;;6.98;100.00
18813;BME280;9534;51.140;6.296;2023-01-15T05:44:37;99006.72;;;7.00;100.00
18813;BME280;9534;51.140;6.296;2023-01-15T05:48:40;98997.97;;;6.98;100.00
18813;BME280;9534;51.140;6.296;2023-01-15T05:52:43;99000.22;;;7.01;100.00
18813;BME280;9534;51.140;6.296;2023-01-15T05:56:46;99010.50;;;6.99;100.00
18813;BME280;9534;51.140;6.296;2023-01-15T06:00:51;99009.28;;;6.95;100.00
18813;BME280;9534;51.140;6.296;2023-01-15T06:04:55;99016.38;;;6.96;100.00
18813;BME280;9534;51.140;6.296;2023-01-15T06:08:59;99032.94;;;6.95;100.00
18813;BME280;9534;51.140;6.296;2023-01-15T06:13:02;99030.38;;;7.00;100.00
18813;BME280;9534;51.140;6.296;2023-01-15T06:17:06;99029.53;;;6.99;100.00
18813;BME280;9534;51.140;6.296;2023-01-15T06:21:11;99037.69;;;6.99;100.00
18813;BME280;9534;51.140;6.296;2023-01-15T06:25:14;99038.13;;;6.96;100.00
18813;BME280;9534;51.140;6.296;2023-01-15T06:29:17;98998.88;;;6.92;100.00
18813;BME280;9534;51.140;6.296;2023-01-15T06:33:22;99033.41;;;6.92;100.00
18813;BME280;9534;51.140;6.296;2023-01-15T06:37:25;99043.91;;;6.88;100.00
18813;BME280;9534;51.140;6.296;2023-01-15T06:41:28;99045.78;;;6.88;100.00
18813;BME280;9534;51.140;6.296;2023-01-15T06:45:49;99051.44;;;6.86;100.00
18813;BME280;9534;51.140;6.296;2023-01-15T06:50:12;99038.75;;;6.80;100.00
18813;BME280;9534;51.140;6.296;2023-01-15T06:54:16;99053.63;;;6.78;100.00
18813;BME280;9534;51.140;6.296;2023-01-15T06:58:19;99047.56;;;6.76;100.00
18813;BME280;9534;51.140;6.296;2023-01-15T07:02:23;99057.19;;;6.78;100.00
18813;BME280;9534;51.140;6.296;2023-01-15T07:06:28;99061.00;;;6.71;100.00
18813;BME280;9534;51.140;6.296;2023-01-15T07:10:32;99057.69;;;6.69;100.00
18813;BME280;9534;51.140;6.296;2023-01-15T07:14:36;99058.97;;;6.66;100.00
18813;BME280;9534;51.140;6.296;2023-01-15T07:18:39;99059.16;;;6.65;100.00
18813;BME280;9534;51.140;6.296;2023-01-15T07:22:47;99094.13;;;6.61;100.00
18813;BME280;9534;51.140;6.296;2023-01-15T07:26:50;99069.69;;;6.61;100.00
18813;BME280;9534;51.140;6.296;2023-01-15T07:30:57;99062.56;;;6.60;100.00
18813;BME280;9534;51.140;6.296;2023-01-15T07:35:00;99071.34;;;6.62;100.00
18813;BME280;9534;51.140;6.296;2023-01-15T07:39:05;99089.16;;;6.58;100.00
18813;BME280;9534;51.140;6.296;2023-01-15T07:43:08;99083.25;;;6.61;100.00
18813;BME280;9534;51.140;6.296;2023-01-15T07:47:29;99082.84;;;6.58;100.00
18813;BME280;9534;51.140;6.296;2023-01-15T07:51:50;99090.03;;;6.52;100.00
18813;BME280;9534;51.140;6.296;2023-01-15T07:55:54;99100.47;;;6.55;100.00
18813;BME280;9534;51.140;6.296;2023-01-15T07:59:57;99092.75;;;6.52;100.00
18813;BME280;9534;51.140;6.296;2023-01-15T08:04:00;99091.53;;;6.48;100.00
18813;BME280;9534;51.140;6.296;2023-01-15T08:08:04;99092.56;;;6.47;100.00
18813;BME280;9534;51.140;6.296;2023-01-15T08:12:10;99096.00;;;6.36;100.00
18813;BME280;9534;51.140;6.296;2023-01-15T08:16:34;99107.53;;;6.32;100.00
18813;BME280;9534;51.140;6.296;2023-01-15T08:20:37;99118.69;;;6.24;100.00
18813;BME280;9534;51.140;6.296;2023-01-15T08:24:40;99125.78;;;6.18;100.00
18813;BME280;9534;51.140;6.296;2023-01-15T08:28:45;99120.81;;;6.15;100.00
18813;BME280;9534;51.140;6.296;2023-01-15T08:32:48;99143.41;;;6.10;100.00
18813;BME280;9534;51.140;6.296;2023-01-15T08:36:51;99150.16;;;6.01;100.00
18813;BME280;9534;51.140;6.296;2023-01-15T08:41:00;99154.38;;;5.90;100.00
18813;BME280;9534;51.140;6.296;2023-01-15T08:45:07;99151.25;;;5.87;100.00
18813;BME280;9534;51.140;6.296;2023-01-15T08:49:10;99162.09;;;5.87;100.00
18813;BME280;9534;51.140;6.296;2023-01-15T08:53:13;99171.94;;;5.88;100.00
18813;BME280;9534;51.140;6.296;2023-01-15T08:57:16;99189.44;;;5.85;100.00
18813;BME280;9534;51.140;6.296;2023-01-15T09:01:21;99165.50;;;5.76;100.00
18813;BME280;9534;51.140;6.296;2023-01-15T09:05:24;99182.81;;;5.75;100.00
18813;BME280;9534;51.140;6.296;2023-01-15T09:09:28;99157.72;;;5.86;100.00
18813;BME280;9534;51.140;6.296;2023-01-15T09:13:32;99147.41;;;6.38;100.00
18813;BME280;9534;51.140;6.296;2023-01-15T09:17:36;99122.38;;;6.60;100.00
18813;BME280;9534;51.140;6.296;2023-01-15T09:21:41;99132.34;;;6.66;100.00
18813;BME280;9534;51.140;6.296;2023-01-15T09:25:50;99119.72;;;6.96;100.00
18813;BME280;9534;51.140;6.296;2023-01-15T09:29:54;99108.72;;;7.09;100.00
18813;BME280;9534;51.140;6.296;2023-01-15T09:33:58;99107.22;;;7.49;100.00
18813;BME280;9534;51.140;6.296;2023-01-15T09:38:02;99133.22;;;7.45;100.00
18813;BME280;9534;51.140;6.296;2023-01-15T09:42:17;99114.19;;;7.45;100.00
18813;BME280;9534;51.140;6.296;2023-01-15T09:46:30;99098.81;;;7.68;100.00
18813;BME280;9534;51.140;6.296;2023-01-15T09:50:50;99105.81;;;7.76;100.00
18813;BME280;9534;51.140;6.296;2023-01-15T09:55:02;99093.78;;;7.83;100.00
18813;BME280;9534;51.140;6.296;2023-01-15T09:59:18;99110.00;;;8.08;100.00
18813;BME280;9534;51.140;6.296;2023-01-15T10:03:31;99114.66;;;8.19;100.00
18813;BME280;9534;51.140;6.296;2023-01-15T10:07:43;99128.72;;;8.16;100.00
18813;BME280;9534;51.140;6.296;2023-01-15T10:11:51;99131.72;;;8.44;100.00
18813;BME280;9534;51.140;6.296;2023-01-15T10:16:19;99124.25;;;7.92;100.00
18813;BME280;9534;51.140;6.296;2023-01-15T10:20:36;99119.84;;;7.91;100.00
18813;BME280;9534;51.140;6.296;2023-01-15T10:24:50;99149.22;;;7.89;100.00
18813;BME280;9534;51.140;6.296;2023-01-15T10:28:59;99140.84;;;7.72;100.00
18813;BME280;9534;51.140;6.296;2023-01-15T10:33:18;99133.06;;;7.58;100.00
18813;BME280;9534;51.140;6.296;2023-01-15T10:37:30;99134.03;;;8.11;100.00
18813;BME280;9534;51.140;6.296;2023-01-15T10:41:50;99145.06;;;7.86;100.00
18813;BME280;9534;51.140;6.296;2023-01-15T10:45:56;99107.00;;;7.80;100.00
18813;BME280;9534;51.140;6.296;2023-01-15T10:50:02;99152.59;;;7.55;100.00
18813;BME280;9534;51.140;6.296;2023-01-15T10:54:18;99172.06;;;7.34;100.00
18813;BME280;9534;51.140;6.296;2023-01-15T10:58:32;99162.94;;;7.29;100.00
18813;BME280;9534;51.140;6.296;2023-01-15T11:02:38;99167.19;;;7.18;100.00
18813;BME280;9534;51.140;6.296;2023-01-15T11:06:42;99142.28;;;7.21;100.00
18813;BME280;9534;51.140;6.296;2023-01-15T11:10:45;99147.09;;;7.19;100.00
18813;BME280;9534;51.140;6.296;2023-01-15T11:14:50;99152.19;;;7.16;100.00
18813;BME280;9534;51.140;6.296;2023-01-15T11:19:23;99174.75;;;7.16;100.00
18813;BME280;9534;51.140;6.296;2023-01-15T11:23:40;99170.81;;;7.12;100.00
18813;BME280;9534;51.140;6.296;2023-01-15T11:27:48;99157.97;;;7.19;100.00
18813;BME280;9534;51.140;6.296;2023-01-15T11:31:53;99168.88;;;7.19;100.00
18813;BME280;9534;51.140;6.296;2023-01-15T11:35:58;99184.28;;;7.25;100.00
18813;BME280;9534;51.140;6.296;2023-01-15T11:40:02;99132.06;;;7.52;100.00
18813;BME280;9534;51.140;6.296;2023-01-15T11:44:09;99141.63;;;7.26;100.00
18813;BME280;9534;51.140;6.296;2023-01-15T11:48:42;99149.81;;;7.19;100.00
18813;BME280;9534;51.140;6.296;2023-01-15T11:53:03;99191.06;;;7.16;100.00
18813;BME280;9534;51.140;6.296;2023-01-15T11:57:09;99134.19;;;7.15;100.00
18813;BME280;9534;51.140;6.296;2023-01-15T12:01:13;99140.22;;;7.34;100.00
18813;BME280;9534;51.140;6.296;2023-01-15T12:05:20;99141.69;;;7.37;100.00
18813;BME280;9534;51.140;6.296;2023-01-15T12:09:33;99128.75;;;7.50;100.00
18813;BME280;9534;51.140;6.296;2023-01-15T12:13:42;99135.13;;;7.92;100.00
18813;BME280;9534;51.140;6.296;2023-01-15T12:18:23;99114.19;;;8.22;100.00
18813;BME280;9534;51.140;6.296;2023-01-15T12:22:45;99121.28;;;8.41;100.00
18813;BME280;9534;51.140;6.296;2023-01-15T12:27:03;99133.47;;;7.91;100.00
18813;BME280;9534;51.140;6.296;2023-01-15T12:31:11;99134.13;;;7.75;100.00
18813;BME280;9534;51.140;6.296;2023-01-15T12:35:24;99124.75;;;7.53;100.00
18813;BME280;9534;51.140;6.296;2023-01-15T12:39:35;99129.16;;;7.54;100.00
18813;BME280;9534;51.140;6.296;2023-01-15T12:43:48;99121.44;;;7.51;100.00
18813;BME280;9534;51.140;6.296;2023-01-15T12:48:15;99126.34;;;7.42;100.00
18813;BME280;9534;51.140;6.296;2023-01-15T12:52:23;99158.94;;;7.49;100.00
18813;BME280;9534;51.140;6.296;2023-01-15T12:56:36;99145.63;;;7.41;100.00
18813;BME280;9534;51.140;6.296;2023-01-15T13:00:44;99166.50;;;7.47;100.00
18813;BME280;9534;51.140;6.296;2023-01-15T13:04:51;99142.59;;;7.49;100.00
18813;BME280;9534;51.140;6.296;2023-01-15T13:08:59;99116.81;;;7.51;100.00
18813;BME280;9534;51.140;6.296;2023-01-15T13:13:14;99167.31;;;7.47;100.00
18813;BME280;9534;51.140;6.296;2023-01-15T13:17:26;99145.16;;;7.44;100.00
18813;BME280;9534;51.140;6.296;2023-01-15T13:21:33;99133.88;;;7.40;100.00
18813;BME280;9534;51.140;6.296;2023-01-15T13:25:48;99139.13;;;7.42;100.00
18813;BME280;9534;51.140;6.296;2023-01-15T13:30:14;99138.06;;;7.43;100.00
18813;BME280;9534;51.140;6.296;2023-01-15T13:34:27;99139.78;;;7.37;100.00
18813;BME280;9534;51.140;6.296;2023-01-15T13:38:37;99150.66;;;7.37;100.00
18813;BME280;9534;51.140;6.296;2023-01-15T13:42:44;99146.38;;;7.48;100.00
18813;BME280;9534;51.140;6.296;2023-01-15T13:46:59;99163.53;;;7.48;100.00
18813;BME280;9534;51.140;6.296;2023-01-15T13:51:04;99153.47;;;7.49;100.00
18813;BME280;9534;51.140;6.296;2023-01-15T13:55:12;99161.88;;;7.47;100.00
18813;BME280;9534;51.140;6.296;2023-01-15T13:59:39;99152.72;;;7.42;100.00
18813;BME280;9534;51.140;6.296;2023-01-15T14:03:56;99148.94;;;7.43;100.00
18813;BME280;9534;51.140;6.296;2023-01-15T14:08:14;99144.13;;;7.45;100.00
18813;BME280;9534;51.140;6.296;2023-01-15T14:12:27;99143.06;;;7.46;100.00
18813;BME280;9534;51.140;6.296;2023-01-15T14:16:50;99149.72;;;7.50;100.00
18813;BME280;9534;51.140;6.296;2023-01-15T14:21:09;99145.94;;;7.51;100.00
18813;BME280;9534;51.140;6.296;2023-01-15T14:25:30;99157.88;;;7.50;100.00
18813;BME280;9534;51.140;6.296;2023-01-15T14:30:09;99150.16;;;7.47;100.00
18813;BME280;9534;51.140;6.296;2023-01-15T14:34:21;99156.50;;;7.41;100.00
18813;BME280;9534;51.140;6.296;2023-01-15T14:38:28;99156.97;;;7.38;100.00
18813;BME280;9534;51.140;6.296;2023-01-15T14:42:36;99169.88;;;7.42;100.00
18813;BME280;9534;51.140;6.296;2023-01-15T14:47:01;99156.88;;;7.44;100.00
18813;BME280;9534;51.140;6.296;2023-01-15T14:51:09;99173.19;;;7.44;100.00
18813;BME280;9534;51.140;6.296;2023-01-15T14:55:16;99168.59;;;7.45;100.00
18813;BME280;9534;51.140;6.296;2023-01-15T14:59:22;99142.91;;;7.41;100.00
18813;BME280;9534;51.140;6.296;2023-01-15T15:03:32;99136.44;;;7.35;100.00
18813;BME280;9534;51.140;6.296;2023-01-15T15:07:39;99159.53;;;7.33;100.00
18813;BME280;9534;51.140;6.296;2023-01-15T15:11:47;99171.47;;;7.32;100.00
18813;BME280;9534;51.140;6.296;2023-01-15T15:16:13;99162.22;;;7.15;100.00
18813;BME280;9534;51.140;6.296;2023-01-15T15:20:23;99145.28;;;7.13;100.00
18813;BME280;9534;51.140;6.296;2023-01-15T15:24:33;99158.69;;;7.15;100.00
18813;BME280;9534;51.140;6.296;2023-01-15T15:28:38;99151.78;;;7.12;100.00
18813;BME280;9534;51.140;6.296;2023-01-15T15:32:42;99169.31;;;7.16;100.00
18813;BME280;9534;51.140;6.296;2023-01-15T15:36:45;99184.13;;;7.20;100.00
18813;BME280;9534;51.140;6.296;2023-01-15T15:40:51;99168.41;;;7.22;100.00
18813;BME280;9534;51.140;6.296;2023-01-15T15:44:58;99162.59;;;7.19;100.00
18813;BME280;9534;51.140;6.296;2023-01-15T15:49:19;99168.06;;;7.19;100.00
18813;BME280;9534;51.140;6.296;2023-01-15T15:53:22;99162.06;;;7.10;100.00
18813;BME280;9534;51.140;6.296;2023-01-15T15:57:26;99166.06;;;7.08;100.00
18813;BME280;9534;51.140;6.296;2023-01-15T16:01:36;99161.41;;;7.15;100.00
18813;BME280;9534;51.140;6.296;2023-01-15T16:05:40;99177.72;;;7.15;100.00
18813;BME280;9534;51.140;6.296;2023-01-15T16:09:47;99162.97;;;7.22;100.00
18813;BME280;9534;51.140;6.296;2023-01-15T16:13:52;99157.53;;;7.22;100.00
18813;BME280;9534;51.140;6.296;2023-01-15T16:17:58;99157.22;;;7.12;100.00
18813;BME280;9534;51.140;6.296;2023-01-15T16:22:04;99158.72;;;7.08;100.00
18813;BME280;9534;51.140;6.296;2023-01-15T16:26:11;99176.41;;;7.17;100.00
18813;BME280;9534;51.140;6.296;2023-01-15T16:30:15;99134.66;;;7.12;100.00
18813;BME280;9534;51.140;6.296;2023-01-15T16:34:22;99149.50;;;7.09;100.00
18813;BME280;9534;51.140;6.296;2023-01-15T16:38:25;99146.34;;;7.12;100.00
18813;BME280;9534;51.140;6.296;2023-01-15T16:42:31;99148.44;;;7.10;100.00
18813;BME280;9534;51.140;6.296;2023-01-15T16:46:38;99167.66;;;7.15;100.00
18813;BME280;9534;51.140;6.296;2023-01-15T16:50:44;99167.66;;;7.15;100.00
18813;BME280;9534;51.140;6.296;2023-01-15T16:54:47;99153.88;;;7.10;100.00
18813;BME280;9534;51.140;6.296;2023-01-15T16:58:50;99212.06;;;7.09;100.00
18813;BME280;9534;51.140;6.296;2023-01-15T17:02:54;99168.78;;;7.08;100.00
18813;BME280;9534;51.140;6.296;2023-01-15T17:07:01;99180.47;;;7.08;100.00
18813;BME280;9534;51.140;6.296;2023-01-15T17:11:08;99177.16;;;7.06;100.00
18813;BME280;9534;51.140;6.296;2023-01-15T17:15:35;99184.16;;;6.96;100.00
18813;BME280;9534;51.140;6.296;2023-01-15T17:19:38;99192.53;;;6.94;100.00
18813;BME280;9534;51.140;6.296;2023-01-15T17:23:43;99191.91;;;6.92;100.00
18813;BME280;9534;51.140;6.296;2023-01-15T17:27:47;99189.66;;;6.89;100.00
18813;BME280;9534;51.140;6.296;2023-01-15T17:31:50;99200.53;;;6.89;100.00
18813;BME280;9534;51.140;6.296;2023-01-15T17:35:53;99198.47;;;6.85;100.00
18813;BME280;9534;51.140;6.296;2023-01-15T17:40:00;99203.09;;;6.84;100.00
18813;BME280;9534;51.140;6.296;2023-01-15T17:44:04;99193.72;;;6.80;100.00
18813;BME280;9534;51.140;6.296;2023-01-15T17:48:08;99188.53;;;6.72;100.00
18813;BME280;9534;51.140;6.296;2023-01-15T17:52:15;99200.50;;;6.65;100.00
18813;BME280;9534;51.140;6.296;2023-01-15T17:56:29;99208.31;;;6.55;100.00
18813;BME280;9534;51.140;6.296;2023-01-15T18:00:51;99200.88;;;6.44;100.00
18813;BME280;9534;51.140;6.296;2023-01-15T18:05:12;99209.66;;;6.39;100.00
18813;BME280;9534;51.140;6.296;2023-01-15T18:09:28;99204.50;;;6.31;100.00
18813;BME280;9534;51.140;6.296;2023-01-15T18:13:32;99210.97;;;6.30;100.00
18813;BME280;9534;51.140;6.296;2023-01-15T18:17:36;99198.69;;;6.21;100.00
18813;BME280;9534;51.140;6.296;2023-01-15T18:21:39;99200.19;;;6.17;100.00
18813;BME280;9534;51.140;6.296;2023-01-15T18:25:42;99183.25;;;6.15;100.00
18813;BME280;9534;51.140;6.296;2023-01-15T18:29:49;99197.28;;;6.13;100.00
18813;BME280;9534;51.140;6.296;2023-01-15T18:33:52;99174.75;;;6.06;100.00
18813;BME280;9534;51.140;6.296;2023-01-15T18:37:56;99166.78;;;6.11;100.00
18813;BME280;9534;51.140;6.296;2023-01-15T18:41:59;99176.25;;;6.02;100.00
18813;BME280;9534;51.140;6.296;2023-01-15T18:46:21;99163.56;;;5.96;100.00
18813;BME280;9534;51.140;6.296;2023-01-15T18:50:45;99165.84;;;5.99;100.00
18813;BME280;9534;51.140;6.296;2023-01-15T18:54:49;99163.31;;;6.04;100.00
18813;BME280;9534;51.140;6.296;2023-01-15T18:58:53;99156.97;;;6.10;100.00
18813;BME280;9534;51.140;6.296;2023-01-15T19:02:58;99153.03;;;6.06;100.00
18813;BME280;9534;51.140;6.296;2023-01-15T19:07:02;99149.25;;;6.07;100.00
18813;BME280;9534;51.140;6.296;2023-01-15T19:11:10;99143.41;;;6.10;100.00
18813;BME280;9534;51.140;6.296;2023-01-15T19:15:15;99140.31;;;6.06;100.00
18813;BME280;9534;51.140;6.296;2023-01-15T19:19:37;99141.31;;;6.12;100.00
18813;BME280;9534;51.140;6.296;2023-01-15T19:23:43;99130.88;;;6.09;100.00
18813;BME280;9534;51.140;6.296;2023-01-15T19:27:46;99123.78;;;6.08;100.00
18813;BME280;9534;51.140;6.296;2023-01-15T19:31:49;99118.25;;;6.27;100.00
18813;BME280;9534;51.140;6.296;2023-01-15T19:35:55;99114.81;;;6.38;100.00
18813;BME280;9534;51.140;6.296;2023-01-15T19:39:59;99110.97;;;6.45;100.00
18813;BME280;9534;51.140;6.296;2023-01-15T19:44:03;99102.38;;;6.48;100.00
18813;BME280;9534;51.140;6.296;2023-01-15T19:48:24;99105.28;;;6.53;100.00
18813;BME280;9534;51.140;6.296;2023-01-15T19:52:47;99095.63;;;6.57;100.00
18813;BME280;9534;51.140;6.296;2023-01-15T19:56:51;99088.38;;;6.51;100.00
18813;BME280;9534;51.140;6.296;2023-01-15T20:00:54;99092.41;;;6.42;100.00
18813;BME280;9534;51.140;6.296;2023-01-15T20:04:57;99097.66;;;6.37;100.00
18813;BME280;9534;51.140;6.296;2023-01-15T20:09:02;99101.50;;;6.54;100.00
18813;BME280;9534;51.140;6.296;2023-01-15T20:13:10;99092.47;;;6.60;100.00
18813;BME280;9534;51.140;6.296;2023-01-15T20:17:32;99076.88;;;6.74;100.00
18813;BME280;9534;51.140;6.296;2023-01-15T20:21:35;99071.06;;;6.70;100.00
18813;BME280;9534;51.140;6.296;2023-01-15T20:25:40;99058.69;;;6.74;100.00
18813;BME280;9534;51.140;6.296;2023-01-15T20:29:47;99050.09;;;6.77;100.00
18813;BME280;9534;51.140;6.296;2023-01-15T20:33:51;99048.56;;;6.81;100.00
18813;BME280;9534;51.140;6.296;2023-01-15T20:37:55;99034.81;;;6.76;100.00
18813;BME280;9534;51.140;6.296;2023-01-15T20:42:00;99027.88;;;6.80;100.00
18813;BME280;9534;51.140;6.296;2023-01-15T20:46:20;99018.88;;;6.80;100.00
18813;BME280;9534;51.140;6.296;2023-01-15T20:50:26;99016.16;;;6.80;100.00
18813;BME280;9534;51.140;6.296;2023-01-15T20:54:30;99018.66;;;6.63;100.00
18813;BME280;9534;51.140;6.296;2023-01-15T20:58:34;99018.16;;;6.48;100.00
18813;BME280;9534;51.140;6.296;2023-01-15T21:02:37;99006.34;;;6.36;100.00
18813;BME280;9534;51.140;6.296;2023-01-15T21:06:41;98998.72;;;6.27;100.00
18813;BME280;9534;51.140;6.296;2023-01-15T21:10:44;98998.03;;;6.31;100.00
18813;BME280;9534;51.140;6.296;2023-01-15T21:14:49;98992.94;;;6.41;100.00
18813;BME280;9534;51.140;6.296;2023-01-15T21:18:52;98994.00;;;6.40;100.00
18813;BME280;9534;51.140;6.296;2023-01-15T21:22:55;98981.63;;;6.44;100.00
18813;BME280;9534;51.140;6.296;2023-01-15T21:26:59;98952.09;;;6.48;100.00
18813;BME280;9534;51.140;6.296;2023-01-15T21:31:06;98964.59;;;6.55;100.00
18813;BME280;9534;51.140;6.296;2023-01-15T21:35:09;98952.81;;;6.61;100.00
18813;BME280;9534;51.140;6.296;2023-01-15T21:39:14;98941.50;;;6.64;100.00
18813;BME280;9534;51.140;6.296;2023-01-15T21:43:18;98933.41;;;6.58;100.00
18813;BME280;9534;51.140;6.296;2023-01-15T21:47:54;98918.78;;;6.41;100.00
18813;BME280;9534;51.140;6.296;2023-01-15T21:51:58;98916.34;;;6.33;100.00
18813;BME280;9534;51.140;6.296;2023-01-15T21:56:01;98921.38;;;6.29;100.00
18813;BME280;9534;51.140;6.296;2023-01-15T22:00:05;98921.75;;;6.15;100.00
18813;BME280;9534;51.140;6.296;2023-01-15T22:04:10;98919.53;;;6.06;100.00
18813;BME280;9534;51.140;6.296;2023-01-15T22:08:13;98913.22;;;6.12;100.00
18813;BME280;9534;51.140;6.296;2023-01-15T22:12:17;98917.22;;;6.09;100.00